Time;durP1;ratioP1;P1;durP2;ratioP2;P2;SDS_P1;SDS_P2;PMS_P1;PMS_P2;Temp;Humidity;BMP_temperature;BMP_pressure;BME280_temperature;BME280_humidity;BME280_pressure;Samples;Min_cycle;Max_cycle;Signal;HPM_P1;HPM_P2
2022/01/12 00:00:52;;;;;;;0.00;0.00;;;;;;;;;;5008183;28;20038;-69
2022/01/12 00:03:19;;;;;;;0.10;0.10;;;;;;;;;;5012069;28;20103;-66
2022/01/12 00:05:46;;;;;;;1.70;0.40;;;;;;;;;;5029887;28;20492;-67
2022/01/12 00:08:13;;;;;;;0.33;0.10;;;;;;;;;;5032125;28;20384;-66
2022/01/12 00:10:39;;;;;;;0.30;0.10;;;;;;;;;;5032545;28;20025;-65
2022/01/12 00:13:06;;;;;;;0.30;0.10;;;;;;;;;;5031859;28;20079;-67
2022/01/12 00:15:33;;;;;;;1.43;0.30;;;;;;;;;;5032211;28;20025;-67
2022/01/12 00:18:00;;;;;;;2.00;0.30;;;;;;;;;;5029340;28;20037;-65
2022/01/12 00:20:27;;;;;;;0.93;0.50;;;;;;;;;;5027348;28;21055;-67
2022/01/12 00:22:54;;;;;;;1.97;0.23;;;;;;;;;;5027304;28;20102;-66
2022/01/12 00:33:17;;;;;;;1.67;0.40;;;;;;;;;;5032426;28;20043;-68
2022/01/12 00:35:45;;;;;;;1.67;0.40;;;;;;;;;;5032188;28;21064;-66
2022/01/12 00:38:12;;;;;;;3.03;0.30;;;;;;;;;;5031153;28;20060;-69
2022/01/12 00:40:41;;;;;;;9.53;2.23;;;;;;;;;;5028597;28;20033;-67
2022/01/12 00:43:08;;;;;;;1.47;0.57;;;;;;;;;;5026690;28;20090;-66
2022/01/12 00:45:37;;;;;;;1.40;0.30;;;;;;;;;;5026781;28;20033;-66
2022/01/12 00:48:05;;;;;;;2.17;0.40;;;;;;;;;;5026452;28;20030;-68
2022/01/12 00:50:32;;;;;;;0.53;0.37;;;;;;;;;;5029779;28;20029;-68
2022/01/12 00:52:59;;;;;;;3.33;0.50;;;;;;;;;;5031679;28;20108;-67
2022/01/12 00:55:26;;;;;;;1.90;0.40;;;;;;;;;;5031703;28;20110;-68
2022/01/12 00:57:55;;;;;;;0.50;0.20;;;;;;;;;;5031473;28;20029;-68
2022/01/12 01:00:23;;;;;;;0.20;0.10;;;;;;;;;;5031846;28;20038;-69
2022/01/12 01:02:49;;;;;;;1.40;0.20;;;;;;;;;;5028470;28;20026;-68
2022/01/12 01:05:20;;;;;;;1.37;0.40;;;;;;;;;;5026876;28;20025;-69
2022/01/12 01:07:47;;;;;;;2.30;0.60;;;;;;;;;;5025960;28;20052;-67
2022/01/12 01:10:22;;;;;;;2.73;0.40;;;;;;;;;;5026888;28;20033;-68
2022/01/12 01:12:49;;;;;;;0.90;0.37;;;;;;;;;;5029657;28;20026;-68
2022/01/12 01:15:25;;;;;;;4.50;0.53;;;;;;;;;;5032079;28;20022;-67
2022/01/12 01:26:14;;;;;;;1.67;0.50;;;;;;;;;;5024055;28;20048;-68
2022/01/12 01:28:41;;;;;;;1.30;0.43;;;;;;;;;;5026496;28;20037;-67
2022/01/12 01:31:08;;;;;;;5.27;0.70;;;;;;;;;;5026473;28;20248;-68
2022/01/12 01:33:34;;;;;;;3.53;0.80;;;;;;;;;;5026284;28;20357;-67
2022/01/12 01:36:01;;;;;;;4.63;0.73;;;;;;;;;;5031514;28;20375;-67
2022/01/12 01:38:28;;;;;;;2.13;0.60;;;;;;;;;;5031294;28;20029;-68
2022/01/12 01:40:55;;;;;;;2.47;0.80;;;;;;;;;;5030779;28;20044;-67
2022/01/12 01:54:33;;;;;;;2.22;0.63;;;;;;;;;;5004280;28;20039;-67
2022/01/12 01:57:00;;;;;;;3.20;0.70;;;;;;;;;;5029938;28;20033;-67
2022/01/12 01:59:27;;;;;;;2.97;0.80;;;;;;;;;;5034602;28;20032;-67
2022/01/12 02:01:53;;;;;;;1.80;0.53;;;;;;;;;;5035025;28;20079;-67
2022/01/12 02:04:20;;;;;;;1.93;0.50;;;;;;;;;;5034711;28;20072;-67
2022/01/12 02:06:47;;;;;;;2.97;0.53;;;;;;;;;;5034422;28;20026;-67
2022/01/12 02:09:16;;;;;;;2.10;0.73;;;;;;;;;;5031462;28;20025;-67
2022/01/12 02:11:43;;;;;;;1.07;0.60;;;;;;;;;;5029774;28;20175;-67
2022/01/12 02:14:13;;;;;;;1.87;0.60;;;;;;;;;;5029143;28;20591;-67
2022/01/12 02:16:51;;;;;;;3.07;0.53;;;;;;;;;;5028757;28;20057;-68
2022/01/12 02:19:42;;;;;;;1.50;0.40;;;;;;;;;;5032274;28;20491;-67
2022/01/12 02:35:54;;;;;;;1.33;0.60;;;;;;;;;;5029343;28;20120;-68
2022/01/12 02:40:52;;;;;;;3.20;0.40;;;;;;;;;;5030617;28;20042;-67
2022/01/12 02:53:38;;;;;;;10.43;4.28;;;;;;;;;;5034080;28;20068;-64
2022/01/12 02:54:21;;;;;;;20.80;9.90;;;;;;;;;;5009232;28;20096;-65
2022/01/12 02:56:48;;;;;;;32.83;15.90;;;;;;;;;;5017504;28;20033;-65
2022/01/12 02:59:15;;;;;;;22.10;11.50;;;;;;;;;;5028789;28;20040;-65
2022/01/12 03:02:07;;;;;;;10.53;4.57;;;;;;;;;;5028377;28;20030;-65
2022/01/12 03:04:35;;;;;;;4.20;2.10;;;;;;;;;;5033770;28;20030;-65
2022/01/12 03:07:09;;;;;;;4.50;2.00;;;;;;;;;;5033300;28;20138;-67
2022/01/12 03:09:36;;;;;;;5.90;1.77;;;;;;;;;;5032892;28;20025;-66
2022/01/12 03:12:03;;;;;;;4.57;1.40;;;;;;;;;;5033256;28;20151;-64
2022/01/12 03:14:30;;;;;;;4.60;1.30;;;;;;;;;;5033249;28;20077;-65
2022/01/12 03:16:57;;;;;;;5.00;1.20;;;;;;;;;;5028311;28;20036;-67
2022/01/12 03:19:23;;;;;;;10.53;1.90;;;;;;;;;;5028180;28;20164;-67
2022/01/12 03:21:50;;;;;;;3.57;1.40;;;;;;;;;;5028601;28;20426;-68
2022/01/12 03:24:17;;;;;;;2.00;0.87;;;;;;;;;;5027825;28;20045;-67
2022/01/12 03:26:46;;;;;;;4.13;0.90;;;;;;;;;;5033154;28;20041;-67
2022/01/12 03:29:13;;;;;;;3.60;1.20;;;;;;;;;;5033315;28;20479;-67
2022/01/12 03:31:40;;;;;;;2.23;0.97;;;;;;;;;;5032822;28;20104;-66
2022/01/12 03:34:22;;;;;;;2.30;1.17;;;;;;;;;;5033147;28;20419;-65
2022/01/12 03:37:17;;;;;;;2.70;1.00;;;;;;;;;;5032251;28;20025;-65
2022/01/12 03:39:41;;;;;;;1.27;0.63;;;;;;;;;;5027273;28;20047;-64
2022/01/12 03:42:08;;;;;;;2.10;0.90;;;;;;;;;;5027548;28;20040;-67
2022/01/12 03:44:35;;;;;;;2.60;1.03;;;;;;;;;;5028056;28;20029;-66
2022/01/12 03:47:01;;;;;;;3.37;0.87;;;;;;;;;;5028759;28;20079;-65
2022/01/12 03:49:28;;;;;;;1.77;0.90;;;;;;;;;;5032532;28;20108;-67
2022/01/12 03:51:55;;;;;;;1.80;0.70;;;;;;;;;;5033218;28;20021;-68
2022/01/12 03:54:22;;;;;;;2.57;0.80;;;;;;;;;;5016735;28;20031;-64
2022/01/12 03:56:49;;;;;;;4.73;0.90;;;;;;;;;;5032275;28;20453;-66
2022/01/12 03:59:16;;;;;;;2.30;0.87;;;;;;;;;;5030997;28;20108;-66
2022/01/12 04:01:42;;;;;;;3.60;0.73;;;;;;;;;;5027616;28;20034;-65
2022/01/12 04:04:16;;;;;;;2.57;0.57;;;;;;;;;;5026544;28;20074;-66
2022/01/12 04:09:28;;;;;;;1.45;0.60;;;;;;;;;;5029291;28;20614;-68
2022/01/12 04:11:55;;;;;;;1.33;0.70;;;;;;;;;;5032543;28;20036;-68
2022/01/12 04:14:22;;;;;;;3.27;0.83;;;;;;;;;;5032156;28;20034;-69
2022/01/12 04:16:49;;;;;;;1.67;0.80;;;;;;;;;;5032411;28;20465;-65
2022/01/12 04:19:15;;;;;;;1.73;0.50;;;;;;;;;;5032086;28;20029;-66
2022/01/12 04:21:47;;;;;;;1.83;0.70;;;;;;;;;;5029248;28;20041;-65
2022/01/12 04:24:14;;;;;;;2.50;0.80;;;;;;;;;;5027139;28;20033;-63
2022/01/12 04:26:41;;;;;;;3.57;0.60;;;;;;;;;;5027395;28;20036;-63
2022/01/12 04:29:08;;;;;;;1.93;0.80;;;;;;;;;;5027150;28;20033;-65
2022/01/12 04:31:38;;;;;;;4.23;1.33;;;;;;;;;;5028964;28;20033;-66
2022/01/12 04:34:06;;;;;;;2.27;0.83;;;;;;;;;;5032062;28;20029;-66
2022/01/12 04:36:33;;;;;;;5.83;0.90;;;;;;;;;;5024277;28;20092;-66
2022/01/12 04:39:00;;;;;;;7.30;1.60;;;;;;;;;;5031740;28;20043;-68
2022/01/12 04:41:27;;;;;;;2.33;0.83;;;;;;;;;;5032291;28;20035;-66
2022/01/12 04:43:56;;;;;;;2.07;0.67;;;;;;;;;;5029849;28;20033;-67
2022/01/12 04:46:35;;;;;;;3.13;0.83;;;;;;;;;;5027260;28;20032;-66
2022/01/12 04:51:54;;;;;;;1.47;0.80;;;;;;;;;;5003710;28;20625;-67
2022/01/12 04:54:21;;;;;;;1.67;0.80;;;;;;;;;;5029816;28;20543;-66
2022/01/12 04:56:48;;;;;;;3.97;1.10;;;;;;;;;;5032100;28;20259;-68
2022/01/12 04:59:14;;;;;;;1.83;0.60;;;;;;;;;;5031306;28;20259;-68
2022/01/12 05:01:50;;;;;;;1.53;0.70;;;;;;;;;;5031882;28;20286;-68
2022/01/12 05:07:23;;;;;;;0.98;0.52;;;;;;;;;;5027384;28;20285;-64
2022/01/12 05:12:45;;;;;;;2.63;0.80;;;;;;;;;;5007494;28;20115;-66
2022/01/12 05:13:10;;;;;;;5.37;0.80;;;;;;;;;;5011637;28;20267;-66
2022/01/12 05:15:34;;;;;;;2.07;0.57;;;;;;;;;;5021545;28;20273;-67
2022/01/12 05:18:01;;;;;;;4.37;0.73;;;;;;;;;;5029653;28;20633;-68
2022/01/12 05:20:29;;;;;;;3.30;0.70;;;;;;;;;;5030344;28;20880;-66
2022/01/12 05:22:56;;;;;;;2.03;0.80;;;;;;;;;;5031568;28;20823;-65
2022/01/12 05:25:23;;;;;;;5.23;0.97;;;;;;;;;;5031252;28;20267;-68
2022/01/12 05:27:49;;;;;;;1.33;0.70;;;;;;;;;;5030176;28;20763;-67
2022/01/12 05:30:16;;;;;;;1.60;0.50;;;;;;;;;;5026680;28;20250;-67
2022/01/12 05:32:44;;;;;;;1.37;0.70;;;;;;;;;;5028833;28;20294;-67
2022/01/12 05:35:12;;;;;;;0.97;0.40;;;;;;;;;;5030146;28;20311;-67
2022/01/12 05:37:40;;;;;;;2.07;0.97;;;;;;;;;;5030546;28;20279;-67
2022/01/12 05:40:07;;;;;;;4.70;0.70;;;;;;;;;;5034807;28;20273;-67
2022/01/12 05:42:34;;;;;;;2.20;0.80;;;;;;;;;;5035408;28;20295;-67
2022/01/12 05:45:01;;;;;;;1.40;0.73;;;;;;;;;;5035284;28;20266;-67
2022/01/12 05:50:10;;;;;;;6.63;1.10;;;;;;;;;;5033523;28;20751;-67
2022/01/12 05:52:37;;;;;;;2.37;0.80;;;;;;;;;;5029575;28;20293;-67
2022/01/12 05:55:04;;;;;;;3.77;0.80;;;;;;;;;;5030014;28;20259;-67
2022/01/12 05:57:32;;;;;;;1.30;0.60;;;;;;;;;;5029821;28;20274;-67
2022/01/12 05:59:59;;;;;;;3.30;0.70;;;;;;;;;;5030830;28;20369;-67
2022/01/12 06:02:26;;;;;;;1.90;1.50;;;;;;;;;;5034608;28;20286;-66
2022/01/12 06:04:53;;;;;;;1.33;0.70;;;;;;;;;;5034443;28;20274;-67
2022/01/12 06:07:20;;;;;;;3.47;0.70;;;;;;;;;;5034423;28;20267;-67
2022/01/12 06:09:46;;;;;;;1.37;0.50;;;;;;;;;;5034773;28;20749;-67
2022/01/12 06:12:13;;;;;;;3.63;0.60;;;;;;;;;;5032879;28;20290;-67
2022/01/12 06:14:41;;;;;;;1.53;0.70;;;;;;;;;;5029511;28;20274;-67
2022/01/12 06:17:09;;;;;;;2.97;1.70;;;;;;;;;;5029714;28;20301;-67
2022/01/12 06:19:36;;;;;;;2.80;0.97;;;;;;;;;;5029438;28;20266;-67
2022/01/12 06:22:02;;;;;;;4.57;0.60;;;;;;;;;;5029940;28;20293;-67
2022/01/12 06:24:29;;;;;;;2.63;0.70;;;;;;;;;;5034084;28;20271;-67
2022/01/12 06:26:56;;;;;;;3.77;1.30;;;;;;;;;;5034874;28;20263;-67
2022/01/12 06:30:01;;;;;;;3.97;1.10;;;;;;;;;;5034263;28;20625;-66
2022/01/12 06:32:10;;;;;;;3.37;1.00;;;;;;;;;;5033997;28;20273;-66
2022/01/12 06:34:37;;;;;;;4.43;1.00;;;;;;;;;;5032245;28;20292;-66
2022/01/12 06:37:04;;;;;;;4.57;0.80;;;;;;;;;;5029212;28;20267;-67
2022/01/12 06:39:31;;;;;;;4.80;0.93;;;;;;;;;;5028992;28;20666;-66
2022/01/12 06:41:58;;;;;;;4.83;0.93;;;;;;;;;;5029052;28;20314;-67
2022/01/12 06:44:25;;;;;;;1.17;0.57;;;;;;;;;;5029309;28;20354;-67
2022/01/12 06:46:53;;;;;;;2.40;0.70;;;;;;;;;;5033482;28;20329;-66
2022/01/12 06:49:20;;;;;;;5.53;1.13;;;;;;;;;;5033782;28;20266;-67
2022/01/12 06:51:47;;;;;;;1.70;0.73;;;;;;;;;;5034399;28;20274;-66
2022/01/12 06:54:16;;;;;;;2.20;0.80;;;;;;;;;;5033979;28;20301;-66
2022/01/12 06:56:42;;;;;;;2.40;1.07;;;;;;;;;;5032254;28;20266;-66
2022/01/12 06:59:09;;;;;;;3.07;0.87;;;;;;;;;;5028588;28;20282;-67
2022/01/12 07:01:36;;;;;;;3.70;0.70;;;;;;;;;;5028231;28;20306;-67
2022/01/12 07:04:03;;;;;;;2.73;0.80;;;;;;;;;;5028374;28;20262;-66
2022/01/12 07:06:30;;;;;;;1.50;0.70;;;;;;;;;;5029997;28;21086;-66
2022/01/12 07:08:57;;;;;;;2.73;0.63;;;;;;;;;;5033887;28;20271;-66
2022/01/12 07:11:23;;;;;;;2.00;0.67;;;;;;;;;;5033108;28;20345;-66
2022/01/12 07:13:50;;;;;;;3.43;0.73;;;;;;;;;;5033629;28;20328;-66
2022/01/12 07:16:17;;;;;;;3.47;0.80;;;;;;;;;;5033691;28;20295;-66
2022/01/12 07:18:44;;;;;;;3.10;0.60;;;;;;;;;;5031652;28;20278;-66
2022/01/12 07:21:11;;;;;;;2.70;0.50;;;;;;;;;;5028108;28;20637;-67
2022/01/12 07:23:37;;;;;;;2.40;0.60;;;;;;;;;;5028206;28;20279;-66
2022/01/12 07:26:04;;;;;;;3.97;0.77;;;;;;;;;;5028322;28;20274;-67
2022/01/12 07:28:31;;;;;;;1.57;0.60;;;;;;;;;;5029158;28;20607;-66
2022/01/12 07:30:57;;;;;;;1.43;0.60;;;;;;;;;;5033536;28;20765;-66
2022/01/12 07:33:25;;;;;;;1.53;0.60;;;;;;;;;;5032822;28;20284;-66
2022/01/12 07:35:53;;;;;;;1.47;0.60;;;;;;;;;;5033197;28;20277;-66
2022/01/12 07:38:19;;;;;;;2.37;0.50;;;;;;;;;;5032660;28;20292;-66
2022/01/12 07:40:46;;;;;;;1.40;0.60;;;;;;;;;;5031722;28;20283;-66
2022/01/12 07:43:13;;;;;;;0.93;0.50;;;;;;;;;;5027669;28;20328;-66
2022/01/12 07:45:40;;;;;;;3.17;0.83;;;;;;;;;;5028034;28;20665;-66
2022/01/12 07:48:06;;;;;;;7.03;0.83;;;;;;;;;;5027185;28;20309;-66
2022/01/12 07:50:33;;;;;;;2.10;0.83;;;;;;;;;;5028705;28;21269;-66
2022/01/12 07:53:00;;;;;;;2.73;0.80;;;;;;;;;;5032810;28;20270;-66
2022/01/12 07:55:27;;;;;;;1.17;0.63;;;;;;;;;;5032687;28;20254;-66
2022/01/12 07:57:54;;;;;;;1.10;0.60;;;;;;;;;;5032389;28;20309;-66
2022/01/12 08:00:20;;;;;;;3.13;0.70;;;;;;;;;;5032895;28;20267;-66
2022/01/12 08:02:50;;;;;;;1.60;0.60;;;;;;;;;;5030970;28;21670;-66
2022/01/12 08:05:17;;;;;;;2.00;0.47;;;;;;;;;;5027409;28;20298;-66
2022/01/12 08:07:44;;;;;;;2.20;0.80;;;;;;;;;;5027379;28;20274;-66
2022/01/12 08:10:11;;;;;;;4.20;1.13;;;;;;;;;;5026754;28;20271;-66
2022/01/12 08:12:38;;;;;;;1.70;0.80;;;;;;;;;;5027431;28;20271;-66
2022/01/12 08:15:06;;;;;;;1.53;0.70;;;;;;;;;;5032376;28;20270;-66
2022/01/12 08:17:33;;;;;;;3.97;1.13;;;;;;;;;;5031984;28;20294;-66
2022/01/12 08:20:01;;;;;;;1.90;0.60;;;;;;;;;;5032457;28;20271;-66
2022/01/12 08:22:28;;;;;;;1.63;0.80;;;;;;;;;;5032209;28;20290;-66
2022/01/12 08:24:55;;;;;;;1.90;0.60;;;;;;;;;;5031429;28;20259;-66
2022/01/12 08:27:22;;;;;;;1.77;0.70;;;;;;;;;;5027094;28;20286;-66
2022/01/12 08:29:50;;;;;;;1.40;0.80;;;;;;;;;;5011082;28;20288;-66
2022/01/12 08:32:17;;;;;;;0.90;0.60;;;;;;;;;;5027068;28;20320;-66
2022/01/12 08:34:44;;;;;;;1.97;0.60;;;;;;;;;;5027132;28;20278;-66
2022/01/12 08:37:11;;;;;;;0.77;0.50;;;;;;;;;;5032546;28;20753;-66
2022/01/12 08:39:38;;;;;;;2.63;0.60;;;;;;;;;;5022533;28;20254;-66
2022/01/12 08:42:04;;;;;;;0.80;0.33;;;;;;;;;;5012594;28;20284;-66
2022/01/12 08:44:31;;;;;;;3.70;0.77;;;;;;;;;;5012652;28;20738;-66
2022/01/12 08:46:58;;;;;;;0.53;0.33;;;;;;;;;;5011176;28;20266;-66
2022/01/12 08:49:25;;;;;;;1.70;0.60;;;;;;;;;;5007447;28;20259;-66
2022/01/12 08:51:51;;;;;;;0.57;0.37;;;;;;;;;;5007391;28;20263;-66
2022/01/12 08:54:18;;;;;;;1.47;0.67;;;;;;;;;;5025001;28;20750;-66
2022/01/12 08:56:45;;;;;;;1.30;0.57;;;;;;;;;;5027382;28;20254;-66
2022/01/12 08:59:13;;;;;;;1.97;0.80;;;;;;;;;;5032202;28;20361;-66
2022/01/12 09:01:40;;;;;;;1.40;0.60;;;;;;;;;;5031804;28;20295;-66
2022/01/12 09:04:07;;;;;;;1.00;0.50;;;;;;;;;;5031722;28;20305;-66
2022/01/12 09:06:34;;;;;;;2.77;0.73;;;;;;;;;;5032668;28;20263;-66
2022/01/12 09:09:02;;;;;;;0.90;0.50;;;;;;;;;;5035394;28;20625;-66
2022/01/12 09:11:28;;;;;;;1.53;0.70;;;;;;;;;;5030763;28;20296;-66
2022/01/12 09:13:55;;;;;;;1.77;1.03;;;;;;;;;;5030772;28;20361;-66
2022/01/12 09:16:22;;;;;;;1.13;0.53;;;;;;;;;;5030409;28;20320;-66
2022/01/12 09:18:48;;;;;;;0.70;0.50;;;;;;;;;;5030461;28;20745;-66
2022/01/12 09:21:15;;;;;;;1.20;0.40;;;;;;;;;;5035819;28;20298;-65
2022/01/12 09:23:44;;;;;;;1.43;0.67;;;;;;;;;;5035798;28;20273;-66
2022/01/12 09:26:11;;;;;;;3.20;0.80;;;;;;;;;;5035460;28;20284;-66
2022/01/12 09:28:39;;;;;;;0.50;0.33;;;;;;;;;;5035568;28;20308;-66
2022/01/12 09:31:05;;;;;;;1.20;0.57;;;;;;;;;;5034748;28;20277;-66
2022/01/12 09:33:32;;;;;;;1.23;0.60;;;;;;;;;;5029924;28;20278;-66
2022/01/12 09:35:59;;;;;;;1.87;1.10;;;;;;;;;;5030128;28;20271;-66
2022/01/12 09:38:26;;;;;;;1.77;0.60;;;;;;;;;;5030315;28;20808;-66
2022/01/12 09:40:53;;;;;;;1.67;0.60;;;;;;;;;;5030085;28;20290;-66
2022/01/12 09:43:23;;;;;;;1.20;0.50;;;;;;;;;;5035315;28;20266;-66
2022/01/12 09:45:51;;;;;;;1.00;0.60;;;;;;;;;;5034646;28;20358;-66
2022/01/12 09:48:19;;;;;;;2.57;0.60;;;;;;;;;;5035176;28;20270;-66
2022/01/12 09:50:46;;;;;;;1.00;0.50;;;;;;;;;;5035366;28;20274;-66
2022/01/12 09:53:13;;;;;;;0.47;0.43;;;;;;;;;;5018215;28;20270;-65
2022/01/12 09:55:40;;;;;;;1.17;0.53;;;;;;;;;;5030031;28;20251;-66
2022/01/12 09:58:06;;;;;;;1.13;0.60;;;;;;;;;;5029930;28;20281;-66
2022/01/12 10:00:33;;;;;;;0.90;0.30;;;;;;;;;;5029195;28;20290;-66
2022/01/12 10:03:09;;;;;;;1.30;0.70;;;;;;;;;;5029839;28;20725;-66
2022/01/12 10:05:35;;;;;;;1.23;0.50;;;;;;;;;;5035221;28;20249;-65
2022/01/12 10:08:11;;;;;;;0.40;0.40;;;;;;;;;;5035028;28;20761;-66
2022/01/12 10:10:38;;;;;;;3.30;0.50;;;;;;;;;;5034836;28;20610;-66
2022/01/12 10:13:05;;;;;;;1.00;0.50;;;;;;;;;;5034171;28;20278;-66
2022/01/12 10:15:32;;;;;;;1.83;0.60;;;;;;;;;;5033980;28;20712;-65
2022/01/12 10:18:02;;;;;;;2.20;0.50;;;;;;;;;;5029279;28;20274;-66
2022/01/12 10:20:30;;;;;;;2.67;0.80;;;;;;;;;;5013217;28;20345;-66
2022/01/12 10:23:02;;;;;;;1.33;0.37;;;;;;;;;;5029559;28;20332;-65
2022/01/12 10:25:30;;;;;;;0.73;0.30;;;;;;;;;;5029617;28;20282;-66
2022/01/12 10:27:57;;;;;;;1.23;0.40;;;;;;;;;;5033668;28;20267;-67
2022/01/12 10:30:28;;;;;;;2.33;0.47;;;;;;;;;;5034295;28;20608;-65
2022/01/12 10:33:11;;;;;;;0.47;0.27;;;;;;;;;;5034408;28;20270;-66
2022/01/12 10:35:42;;;;;;;1.07;0.60;;;;;;;;;;5033953;28;20265;-65
2022/01/12 10:38:16;;;;;;;2.57;0.40;;;;;;;;;;5031923;28;20926;-65
2022/01/12 10:40:50;;;;;;;3.80;0.20;;;;;;;;;;5028679;28;20357;-66
2022/01/12 10:43:36;;;;;;;0.53;0.30;;;;;;;;;;5028982;28;20270;-65
2022/01/12 10:46:10;;;;;;;0.80;0.50;;;;;;;;;;5029278;28;20254;-66
2022/01/12 10:48:41;;;;;;;1.27;0.40;;;;;;;;;;5031720;28;20263;-65
2022/01/12 10:51:08;;;;;;;0.50;0.30;;;;;;;;;;5034163;28;20357;-66
2022/01/12 10:53:35;;;;;;;0.60;0.33;;;;;;;;;;5033979;28;20270;-65
2022/01/12 10:56:03;;;;;;;4.63;0.37;;;;;;;;;;5033824;28;20261;-65
2022/01/12 10:58:29;;;;;;;0.33;0.30;;;;;;;;;;5034008;28;20764;-65
2022/01/12 11:00:58;;;;;;;0.93;0.43;;;;;;;;;;5030073;28;20282;-65
2022/01/12 11:03:25;;;;;;;0.73;0.40;;;;;;;;;;5028556;28;20334;-66
2022/01/12 11:05:53;;;;;;;1.97;0.50;;;;;;;;;;5028654;28;20346;-65
2022/01/12 11:08:22;;;;;;;1.27;0.50;;;;;;;;;;5028531;28;20298;-65
2022/01/12 11:10:49;;;;;;;0.50;0.40;;;;;;;;;;5032013;28;20609;-66
2022/01/12 11:13:15;;;;;;;1.57;0.50;;;;;;;;;;5033601;28;20282;-65
2022/01/12 11:15:43;;;;;;;2.03;0.40;;;;;;;;;;5033901;28;20610;-65
2022/01/12 11:18:10;;;;;;;0.67;0.40;;;;;;;;;;5033133;28;20274;-65
2022/01/12 11:20:38;;;;;;;0.43;0.40;;;;;;;;;;5033541;28;20753;-65
2022/01/12 11:23:11;;;;;;;0.87;0.30;;;;;;;;;;5029391;28;20263;-66
2022/01/12 11:25:39;;;;;;;0.30;0.30;;;;;;;;;;5028378;28;20267;-65
2022/01/12 11:28:07;;;;;;;0.87;0.37;;;;;;;;;;5028124;28;20350;-65
2022/01/12 11:30:34;;;;;;;0.87;0.47;;;;;;;;;;5027716;28;20298;-66
2022/01/12 11:33:04;;;;;;;1.87;0.50;;;;;;;;;;5031696;28;20765;-66
2022/01/12 11:35:36;;;;;;;1.03;0.30;;;;;;;;;;5032946;28;20262;-65
2022/01/12 11:38:04;;;;;;;1.00;0.67;;;;;;;;;;5033287;28;20262;-66
2022/01/12 11:40:35;;;;;;;1.43;0.60;;;;;;;;;;5032500;28;20271;-65
2022/01/12 11:43:01;;;;;;;0.53;0.50;;;;;;;;;;5033103;28;20262;-65
2022/01/12 11:45:28;;;;;;;0.67;0.30;;;;;;;;;;5028680;28;20267;-65
2022/01/12 11:47:55;;;;;;;0.30;0.30;;;;;;;;;;5027767;28;20251;-65
2022/01/12 11:50:22;;;;;;;0.70;0.37;;;;;;;;;;5027443;28;20270;-66
2022/01/12 11:52:48;;;;;;;0.87;0.40;;;;;;;;;;5027516;28;20278;-65
2022/01/12 11:55:17;;;;;;;1.50;0.53;;;;;;;;;;5031712;28;20271;-65
2022/01/12 11:57:48;;;;;;;0.63;0.50;;;;;;;;;;5032960;28;20274;-66
2022/01/12 12:00:16;;;;;;;1.73;0.40;;;;;;;;;;5032387;28;20251;-66
2022/01/12 12:02:45;;;;;;;3.20;0.60;;;;;;;;;;5032550;28;20287;-66
2022/01/12 12:05:13;;;;;;;0.70;0.40;;;;;;;;;;5032679;28;20349;-66
2022/01/12 12:07:47;;;;;;;1.30;0.50;;;;;;;;;;5027344;28;20279;-66
2022/01/12 12:10:16;;;;;;;3.33;0.30;;;;;;;;;;5009610;28;20266;-66
2022/01/12 12:12:42;;;;;;;2.20;0.40;;;;;;;;;;5027702;28;20259;-66
2022/01/12 12:15:10;;;;;;;2.63;0.40;;;;;;;;;;5027016;28;20263;-66
2022/01/12 12:17:37;;;;;;;2.67;0.60;;;;;;;;;;5031914;28;20271;-66
2022/01/12 12:20:05;;;;;;;0.53;0.33;;;;;;;;;;5032326;28;20321;-66
2022/01/12 12:22:34;;;;;;;2.60;0.50;;;;;;;;;;5032082;28;20784;-66
2022/01/12 12:25:03;;;;;;;1.23;0.60;;;;;;;;;;5032600;28;20267;-66
2022/01/12 12:27:31;;;;;;;1.13;0.50;;;;;;;;;;5032129;28;20313;-65
2022/01/12 12:29:58;;;;;;;0.60;0.40;;;;;;;;;;5026709;28;20336;-66
2022/01/12 12:32:35;;;;;;;3.07;0.60;;;;;;;;;;5026925;28;20328;-66
2022/01/12 12:35:05;;;;;;;4.40;0.50;;;;;;;;;;5026983;28;20275;-66
2022/01/12 12:37:36;;;;;;;1.40;0.63;;;;;;;;;;5027382;28;20338;-66
2022/01/12 12:40:12;;;;;;;0.90;0.50;;;;;;;;;;5031738;28;20346;-66
2022/01/12 12:42:39;;;;;;;2.40;0.57;;;;;;;;;;5031299;28;20381;-65
2022/01/12 12:45:08;;;;;;;2.63;1.23;;;;;;;;;;5032168;28;20819;-66
2022/01/12 12:47:35;;;;;;;1.10;0.53;;;;;;;;;;5032212;28;20250;-65
2022/01/12 12:50:02;;;;;;;2.03;0.60;;;;;;;;;;5030917;28;20358;-66
2022/01/12 12:52:34;;;;;;;0.93;0.57;;;;;;;;;;5026362;28;20270;-66
2022/01/12 12:55:02;;;;;;;0.57;0.30;;;;;;;;;;5026917;28;20350;-66
2022/01/12 12:57:29;;;;;;;1.67;0.63;;;;;;;;;;5026490;28;20831;-66
2022/01/12 13:00:05;;;;;;;0.43;0.33;;;;;;;;;;5027390;28;20591;-66
2022/01/12 13:02:45;;;;;;;2.10;1.23;;;;;;;;;;5031971;28;20282;-66
2022/01/12 13:05:14;;;;;;;2.70;1.10;;;;;;;;;;5031835;28;20263;-65
2022/01/12 13:07:42;;;;;;;1.23;0.83;;;;;;;;;;5032219;28;20251;-66
2022/01/12 13:10:13;;;;;;;4.27;0.70;;;;;;;;;;5032006;28;20269;-65
2022/01/12 13:12:40;;;;;;;2.00;0.93;;;;;;;;;;5029417;28;20286;-66
2022/01/12 13:15:11;;;;;;;2.87;1.00;;;;;;;;;;5026597;28;20328;-66
2022/01/12 13:17:40;;;;;;;3.97;0.80;;;;;;;;;;5026586;28;20259;-66
2022/01/12 13:22:51;;;;;;;1.70;0.73;;;;;;;;;;5028762;28;20270;-65
2022/01/12 13:25:19;;;;;;;2.03;1.00;;;;;;;;;;5031677;28;20657;-65
2022/01/12 13:27:48;;;;;;;0.70;0.70;;;;;;;;;;5031372;28;20836;-66
2022/01/12 13:30:28;;;;;;;2.47;0.87;;;;;;;;;;5031590;28;20583;-66
2022/01/12 13:32:56;;;;;;;3.23;0.80;;;;;;;;;;5031841;28;20738;-65
2022/01/12 13:35:34;;;;;;;2.23;0.93;;;;;;;;;;5027361;28;20590;-65
2022/01/12 13:38:02;;;;;;;2.47;1.10;;;;;;;;;;5026289;28;20263;-66
2022/01/12 13:40:36;;;;;;;2.03;0.90;;;;;;;;;;5026360;28;20263;-65
2022/01/12 13:43:03;;;;;;;3.57;0.97;;;;;;;;;;5026601;28;21007;-66
2022/01/12 13:46:00;;;;;;;1.23;0.80;;;;;;;;;;5029753;28;20259;-66
2022/01/12 13:48:29;;;;;;;2.67;0.80;;;;;;;;;;5030627;28;20271;-66
2022/01/12 13:50:56;;;;;;;3.57;0.70;;;;;;;;;;5031377;28;20259;-65
2022/01/12 13:53:36;;;;;;;1.10;0.70;;;;;;;;;;5032345;28;20761;-66
2022/01/12 13:56:04;;;;;;;5.37;0.90;;;;;;;;;;5034444;28;20325;-66
2022/01/12 13:58:31;;;;;;;4.50;0.93;;;;;;;;;;5029967;28;20270;-65
2022/01/12 14:01:07;;;;;;;1.33;0.83;;;;;;;;;;5029595;28;20295;-65
2022/01/12 14:03:54;;;;;;;4.07;0.97;;;;;;;;;;5029507;28;20258;-66
2022/01/12 14:06:28;;;;;;;3.43;1.10;;;;;;;;;;5030919;28;20271;-65
2022/01/12 14:08:59;;;;;;;4.33;1.10;;;;;;;;;;5034810;28;20833;-65
2022/01/12 14:11:35;;;;;;;4.90;1.43;;;;;;;;;;5034550;28;20570;-66
2022/01/12 14:14:02;;;;;;;3.30;1.20;;;;;;;;;;5034536;28;20757;-65
2022/01/12 14:16:31;;;;;;;3.50;1.60;;;;;;;;;;5034802;28;20274;-65
2022/01/12 14:18:59;;;;;;;5.83;1.00;;;;;;;;;;5032084;28;20259;-65
2022/01/12 14:21:25;;;;;;;5.50;1.47;;;;;;;;;;5029379;28;20340;-66
2022/01/12 14:23:55;;;;;;;3.67;1.50;;;;;;;;;;5028788;28;20280;-66
2022/01/12 14:26:21;;;;;;;3.00;1.17;;;;;;;;;;5028340;28;20277;-66
2022/01/12 14:28:48;;;;;;;5.27;1.10;;;;;;;;;;5029584;28;20294;-66
2022/01/12 14:31:15;;;;;;;3.63;1.20;;;;;;;;;;5032694;28;20290;-66
2022/01/12 14:33:42;;;;;;;5.67;1.30;;;;;;;;;;5032665;28;20267;-66
2022/01/12 14:36:09;;;;;;;3.60;1.70;;;;;;;;;;5032494;28;20266;-66
2022/01/12 14:38:35;;;;;;;3.73;0.80;;;;;;;;;;5032534;28;20251;-66
2022/01/12 14:41:02;;;;;;;1.30;0.73;;;;;;;;;;5029850;28;20042;-66
2022/01/12 14:43:30;;;;;;;6.70;2.37;;;;;;;;;;5028525;28;20029;-67
2022/01/12 14:45:57;;;;;;;4.60;1.30;;;;;;;;;;5028586;28;20025;-66
2022/01/12 14:48:24;;;;;;;3.57;1.50;;;;;;;;;;5028697;28;20092;-67
2022/01/12 14:50:51;;;;;;;7.50;2.00;;;;;;;;;;5030369;28;20096;-68
2022/01/12 14:53:21;;;;;;;8.73;3.30;;;;;;;;;;5016089;28;20396;-65
2022/01/12 14:55:49;;;;;;;10.30;3.43;;;;;;;;;;5033947;28;20084;-65
2022/01/12 14:58:17;;;;;;;8.30;3.40;;;;;;;;;;5033509;28;20029;-65
2022/01/12 15:00:44;;;;;;;3.50;1.30;;;;;;;;;;5033839;28;20491;-67
2022/01/12 15:03:11;;;;;;;4.87;1.90;;;;;;;;;;5030849;28;20037;-68
2022/01/12 15:05:39;;;;;;;2.10;0.50;;;;;;;;;;5027109;28;20030;-65
2022/01/12 15:08:07;;;;;;;1.67;0.63;;;;;;;;;;5008816;28;20030;-66
2022/01/12 15:10:34;;;;;;;2.33;1.10;;;;;;;;;;5008891;28;20018;-67
2022/01/12 15:13:14;;;;;;;2.37;0.90;;;;;;;;;;5030058;28;20013;-67
2022/01/12 15:15:41;;;;;;;4.70;1.20;;;;;;;;;;5033381;28;20022;-67
2022/01/12 15:18:08;;;;;;;3.00;1.50;;;;;;;;;;5033718;28;20026;-66
2022/01/12 15:20:35;;;;;;;6.27;1.40;;;;;;;;;;5033301;28;20499;-67
2022/01/12 15:23:01;;;;;;;5.03;1.50;;;;;;;;;;5033267;28;20025;-67
2022/01/12 15:25:28;;;;;;;2.03;1.00;;;;;;;;;;5030727;28;20022;-65
2022/01/12 15:27:55;;;;;;;2.07;0.80;;;;;;;;;;5027915;28;20514;-67
2022/01/12 15:30:23;;;;;;;2.87;0.90;;;;;;;;;;5027702;28;20037;-67
2022/01/12 15:32:53;;;;;;;2.77;1.10;;;;;;;;;;5027673;28;20026;-67
2022/01/12 15:35:20;;;;;;;3.10;1.10;;;;;;;;;;5030853;28;20029;-66
2022/01/12 15:37:47;;;;;;;1.20;0.50;;;;;;;;;;5033173;28;20033;-67
2022/01/12 15:40:14;;;;;;;1.77;0.77;;;;;;;;;;5033247;28;20439;-67
2022/01/12 15:42:41;;;;;;;1.97;1.00;;;;;;;;;;5033090;28;20514;-67
2022/01/12 15:45:08;;;;;;;1.53;0.47;;;;;;;;;;5032486;28;20029;-67
2022/01/12 15:47:35;;;;;;;1.60;0.60;;;;;;;;;;5029662;28;20590;-67
2022/01/12 15:50:02;;;;;;;3.67;0.80;;;;;;;;;;5027520;28;20075;-67
2022/01/12 15:52:28;;;;;;;0.33;0.20;;;;;;;;;;5027295;28;20492;-67
2022/01/12 15:54:55;;;;;;;3.00;0.40;;;;;;;;;;5027840;28;20018;-67
2022/01/12 15:57:22;;;;;;;4.90;0.40;;;;;;;;;;5029948;28;20032;-67